createdAt,value
2023-01-27T00:01:02.510Z,14.14
2023-01-27T00:02:04.967Z,14.51
2023-01-27T00:03:07.557Z,13.02
2023-01-27T00:04:10.123Z,11.95
2023-01-27T00:05:12.695Z,10.84
2023-01-27T00:06:14.961Z,12.75
2023-01-27T00:07:17.501Z,12.93
2023-01-27T00:08:20.117Z,11.71
2023-01-27T00:09:34.863Z,11.06
2023-01-27T00:10:37.421Z,13.15
2023-01-27T00:11:39.991Z,13.37
2023-01-27T00:12:42.498Z,12.50
2023-01-27T00:13:45.217Z,8.68
2023-01-27T00:14:47.760Z,10.67
2023-01-27T00:15:50.551Z,12.78
2023-01-27T00:16:53.224Z,11.90
2023-01-27T00:17:57.021Z,14.21
2023-01-27T00:18:59.391Z,9.70
2023-01-27T00:20:03.916Z,12.07
2023-01-27T00:21:06.398Z,13.88
2023-01-27T00:22:08.984Z,12.15
2023-01-27T00:23:11.477Z,11.22
2023-01-27T00:24:29.561Z,11.93
2023-01-27T00:25:31.908Z,11.44
2023-01-27T00:26:34.205Z,11.88
2023-01-27T00:27:36.709Z,12.10
2023-01-27T00:28:39.123Z,13.28
2023-01-27T00:29:41.540Z,12.49
2023-01-27T00:30:44.020Z,13.69
2023-01-27T00:31:46.441Z,12.02
2023-01-27T00:32:48.719Z,11.56
2023-01-27T00:33:50.963Z,12.58
2023-01-27T00:34:53.266Z,10.55
2023-01-27T00:36:01.879Z,12.42
2023-01-27T00:37:04.111Z,13.55
2023-01-27T00:38:06.358Z,12.91
2023-01-27T00:39:08.838Z,12.55
2023-01-27T00:41:26.999Z,14.43
2023-01-27T00:42:29.547Z,12.02
2023-01-27T00:43:31.989Z,14.13
2023-01-27T00:44:34.627Z,12.39
2023-01-27T00:45:37.079Z,13.40
2023-01-27T00:46:39.471Z,14.54
2023-01-27T00:47:41.881Z,14.23
2023-01-27T00:48:44.182Z,13.98
2023-01-27T00:49:46.499Z,13.31
2023-01-27T00:50:48.819Z,12.25
2023-01-27T00:52:59.037Z,13.23
2023-01-27T00:55:14.422Z,11.85
2023-01-27T00:56:17.180Z,12.14
2023-01-27T00:57:19.799Z,13.05
2023-01-27T00:58:22.435Z,13.18
2023-01-27T00:59:25.022Z,12.04
2023-01-27T01:00:27.341Z,11.09
2023-01-27T01:01:30.003Z,11.35
2023-01-27T01:03:48.311Z,11.64
2023-01-27T01:04:51.004Z,13.51
2023-01-27T01:05:53.477Z,13.09
2023-01-27T01:06:56.224Z,14.68
2023-01-27T01:07:58.861Z,9.81
2023-01-27T01:09:01.107Z,10.92
2023-01-27T01:10:03.365Z,9.78
2023-01-27T01:11:05.959Z,11.87
2023-01-27T01:12:08.389Z,15.22
2023-01-27T01:13:10.843Z,14.28
2023-01-27T01:14:13.425Z,10.58
2023-01-27T01:15:16.026Z,12.54
2023-01-27T01:17:29.042Z,13.98
2023-01-27T01:18:31.779Z,12.65
2023-01-27T01:19:34.491Z,10.97
2023-01-27T01:20:37.064Z,12.92
2023-01-27T01:21:41.017Z,15.64
2023-01-27T01:22:43.815Z,15.24
2023-01-27T01:23:46.424Z,11.31
2023-01-27T01:24:48.943Z,13.01
2023-01-27T01:25:51.604Z,14.83
2023-01-27T01:26:54.048Z,13.02
2023-01-27T01:27:56.612Z,13.72
2023-01-27T01:30:07.597Z,9.93
2023-01-27T01:31:10.319Z,11.28
2023-01-27T01:33:28.816Z,13.08
2023-01-27T01:34:31.175Z,10.95
2023-01-27T01:35:33.654Z,10.82
2023-01-27T01:36:36.238Z,16.15
2023-01-27T01:37:38.842Z,12.45
2023-01-27T01:38:41.463Z,11.45
2023-01-27T01:39:43.904Z,12.94
2023-01-27T01:40:46.605Z,17.02
2023-01-27T01:41:49.169Z,14.35
2023-01-27T01:42:55.095Z,10.31
2023-01-27T01:43:57.622Z,12.73
2023-01-27T01:46:16.375Z,13.28
2023-01-27T01:47:18.988Z,11.07
2023-01-27T01:48:21.757Z,12.85
2023-01-27T01:49:24.283Z,12.05
2023-01-27T01:50:26.798Z,12.27
2023-01-27T01:51:29.351Z,11.06
2023-01-27T01:52:31.870Z,12.00
2023-01-27T01:53:34.377Z,15.94
2023-01-27T01:55:47.400Z,13.07
2023-01-27T01:56:49.629Z,14.33
2023-01-27T01:57:51.964Z,10.32
2023-01-27T01:58:54.244Z,12.67
2023-01-27T02:01:12.718Z,12.88
2023-01-27T02:02:15.243Z,14.06
2023-01-27T02:03:17.610Z,11.35
2023-01-27T02:04:19.972Z,13.38
2023-01-27T02:05:22.234Z,15.59
2023-01-27T02:06:24.558Z,16.08
2023-01-27T02:07:27.687Z,11.67
2023-01-27T02:08:30.218Z,13.81
2023-01-27T02:10:40.366Z,14.59
2023-01-27T02:11:42.658Z,15.34
2023-01-27T02:12:45.161Z,11.83
2023-01-27T02:15:03.500Z,14.20
2023-01-27T02:16:06.084Z,15.68
2023-01-27T02:17:08.389Z,14.08
2023-01-27T02:18:10.860Z,13.11
2023-01-27T02:19:13.463Z,13.36
2023-01-27T02:20:16.018Z,12.87
2023-01-27T02:21:18.577Z,13.12
2023-01-27T02:22:21.062Z,11.37
2023-01-27T02:23:23.576Z,14.14
2023-01-27T02:25:42.512Z,10.35
2023-01-27T02:26:45.162Z,13.06
2023-01-27T02:27:47.728Z,10.93
2023-01-27T02:28:50.406Z,11.11
2023-01-27T02:29:52.959Z,9.75
2023-01-27T02:30:55.581Z,11.58
2023-01-27T02:31:58.199Z,13.36
2023-01-27T02:33:00.800Z,11.49
2023-01-27T02:34:03.325Z,12.86
2023-01-27T02:36:16.324Z,12.80
2023-01-27T02:37:19.057Z,14.90
2023-01-27T02:38:21.727Z,11.27
2023-01-27T02:39:24.186Z,11.38
2023-01-27T02:40:26.760Z,11.53
2023-01-27T02:41:29.531Z,13.62
2023-01-27T02:43:47.920Z,12.75
2023-01-27T02:44:50.380Z,11.63
2023-01-27T02:45:52.937Z,11.63
2023-01-27T02:46:55.820Z,13.48
2023-01-27T02:47:58.430Z,14.73
2023-01-27T02:49:01.000Z,12.49
2023-01-27T02:50:03.524Z,13.66
2023-01-27T02:51:06.239Z,13.86
2023-01-27T02:52:09.187Z,9.78
2023-01-27T02:54:14.706Z,13.65
2023-01-27T03:06:44.384Z,9.47
2023-01-27T03:07:46.670Z,10.85
2023-01-27T03:08:49.096Z,11.71
2023-01-27T03:09:51.674Z,10.23
2023-01-27T03:10:54.179Z,8.00
2023-01-27T03:11:56.900Z,11.03
2023-01-27T03:12:59.508Z,10.67
2023-01-27T03:14:02.070Z,11.97
2023-01-27T03:15:04.627Z,10.61
2023-01-27T03:16:07.270Z,9.69
2023-01-27T03:17:09.777Z,12.14
2023-01-27T03:18:12.262Z,9.92
2023-01-27T03:19:14.730Z,9.31
2023-01-27T03:20:17.173Z,10.74
2023-01-27T03:21:19.717Z,11.01
2023-01-27T03:22:22.320Z,10.88
2023-01-27T03:23:24.828Z,9.24
2023-01-27T03:24:27.413Z,10.10
2023-01-27T03:25:30.052Z,9.83
2023-01-27T03:26:32.701Z,8.05
2023-01-27T03:27:35.230Z,9.13
2023-01-27T03:28:37.625Z,11.70
2023-01-27T03:29:40.018Z,9.46
2023-01-27T03:30:42.409Z,9.28
2023-01-27T03:31:44.902Z,12.16
2023-01-27T03:32:47.289Z,10.69
2023-01-27T03:33:49.550Z,10.92
2023-01-27T03:34:51.956Z,10.28
2023-01-27T03:35:54.232Z,8.07
2023-01-27T03:36:56.467Z,9.22
2023-01-27T03:37:58.814Z,11.04
2023-01-27T03:39:01.106Z,12.38
2023-01-27T03:40:03.515Z,10.20
2023-01-27T03:41:05.957Z,7.72
2023-01-27T03:42:08.239Z,7.92
2023-01-27T03:43:10.615Z,9.87
2023-01-27T03:44:12.891Z,10.62
2023-01-27T03:45:15.324Z,10.95
2023-01-27T03:46:17.768Z,7.13
2023-01-27T03:47:20.164Z,8.23
2023-01-27T03:48:22.536Z,8.11
2023-01-27T03:49:24.822Z,8.08
2023-01-27T03:50:27.059Z,9.78
2023-01-27T03:51:29.602Z,10.49
2023-01-27T03:52:32.223Z,9.41
2023-01-27T03:53:34.734Z,11.22
2023-01-27T03:54:37.409Z,12.03
2023-01-27T03:55:39.882Z,10.19
2023-01-27T03:56:42.388Z,12.04
2023-01-27T03:57:45.034Z,9.07
2023-01-27T03:58:47.652Z,8.82
2023-01-27T03:59:50.247Z,8.33
2023-01-27T04:00:52.733Z,9.80
2023-01-27T04:01:55.283Z,9.22
2023-01-27T04:02:57.856Z,11.17
2023-01-27T04:04:00.497Z,10.81
2023-01-27T04:05:02.984Z,11.03
2023-01-27T04:06:05.540Z,8.30
2023-01-27T04:07:08.065Z,9.30
2023-01-27T04:08:10.637Z,7.01
2023-01-27T04:09:13.184Z,6.89
2023-01-27T04:10:15.826Z,8.43
2023-01-27T04:11:18.602Z,10.97
2023-01-27T04:12:21.113Z,8.82
2023-01-27T04:13:23.639Z,8.68
2023-01-27T04:14:26.219Z,8.90
2023-01-27T04:15:28.754Z,11.52
2023-01-27T04:16:31.486Z,8.96
2023-01-27T04:17:34.031Z,9.89
2023-01-27T04:18:36.656Z,9.38
2023-01-27T04:19:39.254Z,9.47
2023-01-27T04:20:41.898Z,9.50
2023-01-27T04:21:44.723Z,10.87
2023-01-27T04:22:47.362Z,10.48
2023-01-27T04:23:50.174Z,9.46
2023-01-27T04:24:52.829Z,10.76
2023-01-27T04:25:55.372Z,9.71
2023-01-27T04:26:58.050Z,9.68
2023-01-27T04:28:00.535Z,11.01
2023-01-27T04:29:02.968Z,10.41
2023-01-27T04:30:05.353Z,11.66
2023-01-27T04:31:07.886Z,7.83
2023-01-27T04:32:10.264Z,9.47
2023-01-27T04:33:12.497Z,10.11
2023-01-27T04:34:14.751Z,8.34
2023-01-27T04:35:17.032Z,8.59
2023-01-27T04:36:19.324Z,10.30
2023-01-27T04:37:21.816Z,8.01
2023-01-27T04:38:24.091Z,9.38
2023-01-27T04:39:26.677Z,8.93
2023-01-27T04:40:29.311Z,11.23
2023-01-27T04:41:31.920Z,9.08
2023-01-27T04:42:34.509Z,8.65
2023-01-27T04:43:37.297Z,8.66
2023-01-27T04:44:39.803Z,9.94
2023-01-27T04:45:42.391Z,9.73
2023-01-27T04:46:44.855Z,9.98
2023-01-27T04:47:47.430Z,8.35
2023-01-27T04:48:49.858Z,8.83
2023-01-27T04:49:52.406Z,8.53
2023-01-27T04:50:54.899Z,8.51
2023-01-27T04:51:57.409Z,9.86
2023-01-27T04:52:59.998Z,10.78
2023-01-27T04:54:02.281Z,11.72
2023-01-27T04:55:04.864Z,9.80
2023-01-27T04:56:07.407Z,9.84
2023-01-27T04:57:09.904Z,8.56
2023-01-27T04:58:12.171Z,10.11
2023-01-27T04:59:14.792Z,13.40
2023-01-27T05:00:17.541Z,12.30
2023-01-27T05:01:20.131Z,10.47
2023-01-27T05:02:22.665Z,11.57
2023-01-27T05:03:25.202Z,8.69
2023-01-27T05:04:27.793Z,11.59
2023-01-27T05:05:30.349Z,8.88
2023-01-27T05:06:32.959Z,11.40
2023-01-27T05:07:35.529Z,10.73
2023-01-27T05:08:38.146Z,9.97
2023-01-27T05:09:40.652Z,12.42
2023-01-27T05:10:43.210Z,9.80
2023-01-27T05:11:45.885Z,11.26
2023-01-27T05:12:48.604Z,10.92
2023-01-27T05:13:50.947Z,10.17
2023-01-27T05:14:53.509Z,11.23
2023-01-27T05:15:56.050Z,8.25
2023-01-27T05:16:58.710Z,12.20
2023-01-27T05:18:01.327Z,9.48
2023-01-27T05:19:05.196Z,10.91
2023-01-27T05:20:07.530Z,11.29
2023-01-27T05:21:09.942Z,10.75
2023-01-27T05:22:12.210Z,10.66
2023-01-27T05:23:14.522Z,9.74
2023-01-27T05:24:16.995Z,12.77
2023-01-27T05:25:19.541Z,12.27
2023-01-27T05:26:22.033Z,10.54
2023-01-27T05:27:24.348Z,9.78
2023-01-27T05:28:28.289Z,10.93
2023-01-27T05:29:31.159Z,10.45
2023-01-27T05:30:33.863Z,12.92
2023-01-27T05:31:36.759Z,13.35
2023-01-27T05:32:39.360Z,12.94
2023-01-27T05:33:41.934Z,11.38
2023-01-27T05:34:44.554Z,10.76
2023-01-27T05:35:46.917Z,13.90
2023-01-27T05:36:49.393Z,12.79
2023-01-27T05:37:51.854Z,12.00
2023-01-27T05:38:54.329Z,9.55
2023-01-27T05:39:56.926Z,9.32
2023-01-27T05:40:59.513Z,10.01
2023-01-27T05:42:02.122Z,9.76
2023-01-27T05:43:04.628Z,12.07
2023-01-27T05:44:07.308Z,11.65
2023-01-27T05:45:09.894Z,10.63
2023-01-27T05:46:12.468Z,10.88
2023-01-27T05:47:15.107Z,11.00
2023-01-27T05:48:17.691Z,12.84
2023-01-27T05:49:20.339Z,11.43
2023-01-27T05:50:22.953Z,9.92
2023-01-27T05:51:25.470Z,9.93
2023-01-27T05:52:28.055Z,11.97
2023-01-27T05:53:30.742Z,11.06
2023-01-27T05:54:33.579Z,10.09
2023-01-27T05:55:35.970Z,12.10
2023-01-27T05:56:38.589Z,15.07
2023-01-27T05:57:41.456Z,13.52
2023-01-27T05:58:43.805Z,12.96
2023-01-27T05:59:46.089Z,14.21
2023-01-27T06:00:48.443Z,12.78
2023-01-27T06:01:50.781Z,10.94
2023-01-27T06:02:53.243Z,13.03
2023-01-27T06:03:55.514Z,10.65
2023-01-27T06:04:57.811Z,12.27
2023-01-27T06:06:00.168Z,9.79
2023-01-27T06:07:02.360Z,11.79
2023-01-27T06:08:04.903Z,12.47
2023-01-27T06:09:07.227Z,10.40
2023-01-27T06:10:12.489Z,14.32
2023-01-27T06:11:15.013Z,11.88
2023-01-27T06:12:17.659Z,13.18
2023-01-27T06:13:20.316Z,14.75
2023-01-27T06:14:22.611Z,10.85
2023-01-27T06:15:25.465Z,9.98
2023-01-27T06:16:27.935Z,12.21
2023-01-27T06:17:30.275Z,14.38
2023-01-27T06:18:32.517Z,12.52
2023-01-27T06:19:34.867Z,13.93
2023-01-27T06:20:37.159Z,11.18
2023-01-27T06:21:39.474Z,13.35
2023-01-27T06:22:42.003Z,12.89
2023-01-27T06:23:44.445Z,15.18
2023-01-27T06:24:46.695Z,11.31
2023-01-27T06:25:48.914Z,16.67
2023-01-27T06:26:51.213Z,10.43
2023-01-27T06:27:53.559Z,13.78
2023-01-27T06:28:55.869Z,17.03
2023-01-27T06:29:58.174Z,14.53
2023-01-27T06:31:00.546Z,15.59
2023-01-27T06:32:02.943Z,16.19
2023-01-27T06:33:05.264Z,14.28
2023-01-27T06:34:07.544Z,13.51
2023-01-27T06:35:09.737Z,11.69
2023-01-27T06:36:12.160Z,14.27
2023-01-27T06:37:14.732Z,13.65
2023-01-27T06:38:17.278Z,15.82
2023-01-27T06:39:19.772Z,15.59
2023-01-27T06:40:22.260Z,15.29
2023-01-27T06:41:24.486Z,14.74
2023-01-27T06:42:26.935Z,17.96
2023-01-27T06:43:29.536Z,15.36
2023-01-27T06:44:31.974Z,14.08
2023-01-27T06:45:34.485Z,18.13
2023-01-27T06:46:37.104Z,16.23
2023-01-27T06:47:39.785Z,13.19
2023-01-27T06:48:41.975Z,13.00
2023-01-27T06:49:44.736Z,15.98
2023-01-27T06:50:46.965Z,18.16
2023-01-27T06:51:49.272Z,18.13
2023-01-27T06:52:51.769Z,14.68
2023-01-27T06:53:54.033Z,16.81
2023-01-27T06:54:56.266Z,17.42
2023-01-27T06:55:58.575Z,22.48
2023-01-27T06:57:00.835Z,15.20
2023-01-27T06:58:03.437Z,15.76
2023-01-27T06:59:06.147Z,21.26
2023-01-27T07:00:17.522Z,18.52
2023-01-27T07:01:20.430Z,16.63
2023-01-27T07:02:23.634Z,16.85
2023-01-27T07:03:26.397Z,18.76
2023-01-27T07:04:29.350Z,22.18
2023-01-27T07:05:32.137Z,18.33
2023-01-27T07:06:35.015Z,20.36
2023-01-27T07:07:37.678Z,18.23
2023-01-27T07:08:40.653Z,19.14
2023-01-27T07:09:52.349Z,20.82
2023-01-27T07:10:47.957Z,17.52
2023-01-27T07:11:50.808Z,20.01
2023-01-27T07:12:53.773Z,20.81
2023-01-27T07:13:56.567Z,23.06
2023-01-27T07:14:59.237Z,19.34
2023-01-27T07:16:02.274Z,18.32
2023-01-27T07:17:05.322Z,17.01
2023-01-27T07:18:08.269Z,18.61
2023-01-27T07:19:11.229Z,17.48
2023-01-27T07:20:14.795Z,15.98
2023-01-27T07:21:17.911Z,19.42
2023-01-27T07:22:20.982Z,17.42
2023-01-27T07:23:23.752Z,19.59
2023-01-27T07:24:26.707Z,21.61
2023-01-27T07:25:29.734Z,18.28
2023-01-27T07:26:32.580Z,18.75
2023-01-27T07:27:35.394Z,19.42
2023-01-27T07:28:38.077Z,18.98
2023-01-27T07:29:41.015Z,22.35
2023-01-27T07:30:43.924Z,18.08
2023-01-27T07:31:46.828Z,20.04
2023-01-27T07:32:49.731Z,18.64
2023-01-27T07:33:52.402Z,20.33
2023-01-27T07:34:55.183Z,19.55
2023-01-27T07:35:58.045Z,18.59
2023-01-27T07:37:01.014Z,19.69
2023-01-27T07:38:03.790Z,21.83
2023-01-27T07:39:06.670Z,18.79
2023-01-27T07:40:09.847Z,19.05
2023-01-27T07:41:12.535Z,22.18
2023-01-27T07:42:15.513Z,20.12
2023-01-27T07:43:18.709Z,21.65
2023-01-27T07:44:21.563Z,19.72
2023-01-27T07:45:24.582Z,19.45
2023-01-27T07:46:27.832Z,20.90
2023-01-27T07:47:30.824Z,19.23
2023-01-27T07:48:33.686Z,19.67
2023-01-27T07:49:36.766Z,19.89
2023-01-27T07:50:39.639Z,18.38
2023-01-27T07:51:42.498Z,21.28
2023-01-27T07:52:45.656Z,20.43
2023-01-27T07:53:48.492Z,19.72
2023-01-27T07:54:51.531Z,20.02
2023-01-27T07:55:54.300Z,19.51
2023-01-27T07:56:57.231Z,18.01
2023-01-27T07:58:00.161Z,22.46
2023-01-27T07:59:03.366Z,20.73
2023-01-27T08:00:06.428Z,18.37
2023-01-27T08:01:09.475Z,18.33
2023-01-27T08:02:13.017Z,18.85
2023-01-27T08:03:15.711Z,19.64
2023-01-27T08:04:18.633Z,23.65
2023-01-27T08:05:21.417Z,23.38
2023-01-27T08:06:24.699Z,19.78
2023-01-27T08:07:27.459Z,16.70
2023-01-27T08:08:30.553Z,17.32
2023-01-27T08:09:33.223Z,19.71
2023-01-27T08:10:49.002Z,21.74
2023-01-27T08:11:54.836Z,20.21
2023-01-27T08:12:57.655Z,23.19
2023-01-27T08:14:01.041Z,20.57
2023-01-27T08:15:04.080Z,20.39
2023-01-27T08:16:07.440Z,21.88
2023-01-27T08:17:10.541Z,22.68
2023-01-27T08:18:13.615Z,18.50
2023-01-27T08:19:16.694Z,18.51
2023-01-27T08:20:19.780Z,26.39
2023-01-27T08:21:22.759Z,26.04
2023-01-27T08:22:25.765Z,23.49
2023-01-27T08:23:29.017Z,19.17
2023-01-27T08:24:31.903Z,21.03
2023-01-27T08:25:34.671Z,22.66
2023-01-27T08:26:37.817Z,23.99
2023-01-27T08:27:40.916Z,21.17
2023-01-27T08:28:44.257Z,18.57
2023-01-27T08:29:47.539Z,20.00
2023-01-27T08:30:50.591Z,21.33
2023-01-27T08:31:53.722Z,20.72
2023-01-27T08:32:56.744Z,20.35
2023-01-27T08:33:59.702Z,19.08
2023-01-27T08:35:02.834Z,24.43
2023-01-27T08:36:05.658Z,20.23
2023-01-27T08:37:09.074Z,20.50
2023-01-27T08:38:12.040Z,22.10
2023-01-27T08:39:15.217Z,21.98
2023-01-27T08:40:18.088Z,28.98
2023-01-27T08:41:20.418Z,25.08
2023-01-27T08:42:22.680Z,24.07
2023-01-27T08:43:24.887Z,24.60
2023-01-27T08:44:27.173Z,21.51
2023-01-27T08:45:29.442Z,22.95
2023-01-27T08:46:31.773Z,24.74
2023-01-27T08:47:34.013Z,25.10
2023-01-27T08:48:36.455Z,25.59
2023-01-27T08:49:38.908Z,22.65
2023-01-27T08:50:41.378Z,21.91
2023-01-27T08:51:43.650Z,24.13
2023-01-27T08:52:46.046Z,22.19
2023-01-27T08:53:57.053Z,25.22
2023-01-27T08:54:59.343Z,24.56
2023-01-27T08:56:01.795Z,26.18
2023-01-27T08:57:04.268Z,23.21
2023-01-27T08:58:06.831Z,25.56
2023-01-27T08:59:09.020Z,26.78
2023-01-27T09:00:11.947Z,22.38
2023-01-27T09:01:14.790Z,20.94
2023-01-27T09:02:17.524Z,23.58
2023-01-27T09:03:19.986Z,26.68
2023-01-27T09:04:22.652Z,22.39
2023-01-27T09:05:25.318Z,24.65
2023-01-27T09:06:27.903Z,24.47
2023-01-27T09:07:30.526Z,26.36
2023-01-27T09:08:33.073Z,23.85
2023-01-27T09:09:35.573Z,22.94
2023-01-27T09:10:38.004Z,26.57
2023-01-27T09:11:40.595Z,21.02
2023-01-27T09:12:43.082Z,24.12
2023-01-27T09:13:45.636Z,21.23
2023-01-27T09:14:48.197Z,22.08
2023-01-27T09:15:50.692Z,25.90
2023-01-27T09:16:53.105Z,24.85
2023-01-27T09:17:55.625Z,23.38
2023-01-27T09:18:57.911Z,21.50
2023-01-27T09:20:00.468Z,22.10
2023-01-27T09:21:02.961Z,23.31
2023-01-27T09:22:05.419Z,24.40
2023-01-27T09:23:07.869Z,25.92
2023-01-27T09:24:10.341Z,20.92
2023-01-27T09:25:13.051Z,21.82
2023-01-27T09:26:15.653Z,21.89
2023-01-27T09:27:22.519Z,17.72
2023-01-27T09:28:22.342Z,23.16
2023-01-27T09:29:24.840Z,21.98
2023-01-27T09:30:27.465Z,23.15
2023-01-27T09:31:30.285Z,26.87
2023-01-27T09:32:32.924Z,20.78
2023-01-27T09:33:35.399Z,25.94
2023-01-27T09:34:37.692Z,24.55
2023-01-27T09:35:40.129Z,24.82
2023-01-27T09:36:42.454Z,23.05
2023-01-27T09:37:44.756Z,24.07
2023-01-27T09:38:47.068Z,24.27
2023-01-27T09:39:49.504Z,22.07
2023-01-27T09:40:51.863Z,22.02
2023-01-27T09:41:54.072Z,22.92
2023-01-27T09:42:56.746Z,24.87
2023-01-27T09:43:59.415Z,27.42
2023-01-27T09:46:23.907Z,22.27
2023-01-27T09:47:26.525Z,24.74
2023-01-27T09:48:29.272Z,22.38
2023-01-27T09:49:31.494Z,21.56
2023-01-27T09:50:33.868Z,21.25
2023-01-27T09:51:36.157Z,26.82
2023-01-27T09:52:47.114Z,19.84
2023-01-27T09:53:42.335Z,25.20
2023-01-27T09:54:44.631Z,22.86
2023-01-27T09:55:46.997Z,24.36
2023-01-27T09:56:49.213Z,19.32
2023-01-27T09:59:11.967Z,25.85
2023-01-27T10:00:14.756Z,23.71
2023-01-27T10:01:17.355Z,19.32
2023-01-27T10:02:19.745Z,22.51
2023-01-27T10:03:22.013Z,24.90
2023-01-27T10:04:24.371Z,25.59
2023-01-27T10:05:26.641Z,20.66
2023-01-27T10:06:29.139Z,21.45
2023-01-27T10:07:31.370Z,22.59
2023-01-27T10:08:33.915Z,24.00
2023-01-27T10:09:36.467Z,21.79
2023-01-27T10:10:38.901Z,21.38
2023-01-27T10:11:41.512Z,22.54
2023-01-27T10:12:44.181Z,23.18
2023-01-27T10:13:46.739Z,26.77
2023-01-27T10:14:49.273Z,24.68
2023-01-27T10:15:51.919Z,23.00
2023-01-27T10:16:54.469Z,19.88
2023-01-27T10:17:56.783Z,22.92
2023-01-27T10:18:59.229Z,26.99
2023-01-27T10:20:01.851Z,22.98
2023-01-27T10:21:04.077Z,20.98
2023-01-27T10:22:06.378Z,22.74
2023-01-27T10:23:08.746Z,20.32
2023-01-27T10:24:11.041Z,22.53
2023-01-27T10:25:13.327Z,19.31
2023-01-27T10:26:15.557Z,24.45
2023-01-27T10:27:17.835Z,21.97
2023-01-27T10:28:20.440Z,23.64
2023-01-27T10:29:35.472Z,21.79
2023-01-27T10:30:38.226Z,24.51
2023-01-27T10:31:40.878Z,25.59
2023-01-27T10:32:43.586Z,21.04
2023-01-27T10:33:46.145Z,22.18
2023-01-27T10:34:48.807Z,24.58
2023-01-27T10:35:51.431Z,24.48
2023-01-27T10:36:54.024Z,20.23
2023-01-27T10:37:56.578Z,22.01
2023-01-27T10:38:59.141Z,24.22
2023-01-27T10:40:01.552Z,22.32
2023-01-27T10:41:04.099Z,25.89
2023-01-27T10:42:06.755Z,29.18
2023-01-27T10:43:09.470Z,25.52
2023-01-27T10:44:12.039Z,17.06
2023-01-27T10:45:14.696Z,22.91
2023-01-27T10:46:17.050Z,24.85
2023-01-27T10:47:19.732Z,22.65
2023-01-27T10:48:22.190Z,27.78
2023-01-27T10:49:24.525Z,27.85
2023-01-27T10:50:26.828Z,25.53
2023-01-27T10:51:29.280Z,23.58
2023-01-27T10:52:41.930Z,25.95
2023-01-27T10:53:44.431Z,24.12
2023-01-27T10:54:46.811Z,25.50
2023-01-27T10:55:49.093Z,20.37
2023-01-27T10:56:51.506Z,26.46
2023-01-27T10:57:53.831Z,22.95
2023-01-27T10:58:56.030Z,25.64
2023-01-27T11:00:22.931Z,24.58
2023-01-27T11:01:20.517Z,26.60
2023-01-27T11:02:06.963Z,28.23
2023-01-27T11:03:09.657Z,24.54
2023-01-27T11:04:12.695Z,25.27
2023-01-27T11:05:15.780Z,27.12
2023-01-27T11:06:18.296Z,27.58
2023-01-27T11:07:20.874Z,25.88
2023-01-27T11:08:23.718Z,23.89
2023-01-27T11:09:26.281Z,22.88
2023-01-27T11:10:28.731Z,24.42
2023-01-27T11:11:31.271Z,27.13
2023-01-27T11:12:33.814Z,25.72
2023-01-27T11:13:36.268Z,26.58
2023-01-27T11:14:39.048Z,23.93
2023-01-27T11:15:41.559Z,26.84
2023-01-27T11:16:44.287Z,27.06
2023-01-27T11:17:46.915Z,24.58
2023-01-27T11:18:49.435Z,23.25
2023-01-27T11:19:52.052Z,24.19
2023-01-27T11:20:54.667Z,27.53
2023-01-27T11:22:07.074Z,27.79
2023-01-27T11:23:01.231Z,27.05
2023-01-27T11:24:03.925Z,23.90
2023-01-27T11:25:06.439Z,23.01
2023-01-27T11:26:09.013Z,26.57
2023-01-27T11:27:11.651Z,30.22
2023-01-27T11:28:14.371Z,28.94
2023-01-27T11:29:16.962Z,22.91
2023-01-27T11:30:19.656Z,25.51
2023-01-27T11:31:22.249Z,26.22
2023-01-27T11:32:24.813Z,22.13
2023-01-27T11:33:27.163Z,24.47
2023-01-27T11:34:29.472Z,24.55
2023-01-27T11:35:31.889Z,27.98
2023-01-27T11:36:34.266Z,25.60
2023-01-27T11:37:36.550Z,24.00
2023-01-27T11:38:38.846Z,23.59
2023-01-27T11:39:41.119Z,27.62
2023-01-27T11:40:43.568Z,26.22
2023-01-27T11:41:45.890Z,21.52
2023-01-27T11:42:48.169Z,22.87
2023-01-27T11:43:50.481Z,22.99
2023-01-27T11:44:52.749Z,27.08
2023-01-27T11:45:55.141Z,25.28
2023-01-27T11:46:57.474Z,24.16
2023-01-27T11:47:59.716Z,20.06
2023-01-27T11:49:02.468Z,22.68
2023-01-27T11:50:04.844Z,20.92
2023-01-27T11:51:07.140Z,21.74
2023-01-27T11:52:09.792Z,23.85
2023-01-27T11:53:11.984Z,25.08
2023-01-27T11:54:14.937Z,19.23
2023-01-27T11:55:17.486Z,21.97
2023-01-27T11:56:20.072Z,23.00
2023-01-27T11:57:22.664Z,23.62
2023-01-27T11:58:25.304Z,23.81
2023-01-27T11:59:28.134Z,20.64
2023-01-27T12:00:30.616Z,20.67
2023-01-27T12:01:33.235Z,22.58
2023-01-27T12:02:36.038Z,20.64
2023-01-27T12:03:38.596Z,27.70
2023-01-27T12:04:41.329Z,28.78
2023-01-27T12:05:43.859Z,26.15
2023-01-27T12:06:46.514Z,23.32
2023-01-27T12:07:49.089Z,22.96
2023-01-27T12:08:51.757Z,24.47
2023-01-27T12:09:54.494Z,22.12
2023-01-27T12:10:57.208Z,25.26
2023-01-27T12:11:59.867Z,26.13
2023-01-27T12:13:02.461Z,26.18
2023-01-27T12:14:05.004Z,25.48
2023-01-27T12:15:07.706Z,24.02
2023-01-27T12:16:10.194Z,25.82
2023-01-27T12:17:12.799Z,29.68
2023-01-27T12:18:15.414Z,26.05
2023-01-27T12:19:18.017Z,26.45
2023-01-27T12:20:20.708Z,17.05
2023-01-27T12:21:23.294Z,22.93
2023-01-27T12:22:25.754Z,27.16
2023-01-27T12:23:28.259Z,30.95
2023-01-27T12:24:30.943Z,23.26
2023-01-27T12:25:33.557Z,22.19
2023-01-27T12:26:36.042Z,22.15
2023-01-27T12:27:38.677Z,25.62
2023-01-27T12:28:41.155Z,23.71
2023-01-27T12:29:43.687Z,22.39
2023-01-27T12:30:46.448Z,23.79
2023-01-27T12:31:49.268Z,26.62
2023-01-27T12:32:51.600Z,23.04
2023-01-27T12:35:14.522Z,29.86
2023-01-27T12:36:17.221Z,25.35
2023-01-27T12:37:19.747Z,25.40
2023-01-27T12:38:22.201Z,25.94
2023-01-27T12:39:24.656Z,24.24
2023-01-27T12:40:27.200Z,25.21
2023-01-27T12:41:29.815Z,25.02
2023-01-27T12:42:32.512Z,26.25
2023-01-27T12:43:35.085Z,20.92
2023-01-27T12:44:37.536Z,24.66
2023-01-27T12:45:40.028Z,25.07
2023-01-27T12:46:42.409Z,25.37
2023-01-27T12:47:44.775Z,20.22
2023-01-27T12:48:47.174Z,22.58
2023-01-27T12:49:49.558Z,22.85
2023-01-27T12:50:51.847Z,24.45
2023-01-27T12:51:54.112Z,26.55
2023-01-27T12:52:56.408Z,22.66
2023-01-27T12:53:58.636Z,25.11
2023-01-27T12:55:00.872Z,22.42
2023-01-27T12:56:03.135Z,19.64
2023-01-27T12:57:05.502Z,24.06
2023-01-27T12:58:07.770Z,23.97
2023-01-27T12:59:10.032Z,27.17
2023-01-27T13:00:12.887Z,23.77
2023-01-27T13:01:15.572Z,22.68
2023-01-27T13:02:18.366Z,24.24
2023-01-27T13:03:21.115Z,24.99
2023-01-27T13:04:23.599Z,25.34
2023-01-27T13:05:26.123Z,24.18
2023-01-27T13:06:28.575Z,23.26
2023-01-27T13:07:31.482Z,23.68
2023-01-27T13:08:33.925Z,26.79
2023-01-27T13:09:36.582Z,24.37
2023-01-27T13:10:40.263Z,21.61
2023-01-27T13:11:42.683Z,16.57
2023-01-27T13:12:45.324Z,23.07
2023-01-27T13:13:47.985Z,26.24
2023-01-27T13:14:50.620Z,23.19
2023-01-27T13:15:53.212Z,23.55
2023-01-27T13:16:55.774Z,28.05
2023-01-27T13:17:58.539Z,22.18
2023-01-27T13:19:01.145Z,23.74
2023-01-27T13:20:03.667Z,26.68
2023-01-27T13:21:06.462Z,25.84
2023-01-27T13:22:09.033Z,24.77
2023-01-27T13:23:11.703Z,26.75
2023-01-27T13:24:14.331Z,25.43
2023-01-27T13:25:16.654Z,22.32
2023-01-27T13:26:18.910Z,26.67
2023-01-27T13:27:21.142Z,28.33
2023-01-27T13:28:23.783Z,24.97
2023-01-27T13:29:26.296Z,21.28
2023-01-27T13:30:28.855Z,27.82
2023-01-27T13:31:31.407Z,25.90
2023-01-27T13:32:33.945Z,25.02
2023-01-27T13:33:36.609Z,26.62
2023-01-27T13:34:38.930Z,30.28
2023-01-27T13:35:41.217Z,26.88
2023-01-27T13:36:43.743Z,26.67
2023-01-27T13:37:46.080Z,28.62
2023-01-27T13:38:48.509Z,27.17
2023-01-27T13:39:52.293Z,25.48
2023-01-27T13:40:54.837Z,31.00
2023-01-27T13:41:57.061Z,27.92
2023-01-27T13:42:59.375Z,28.50
2023-01-27T13:44:01.678Z,23.04
2023-01-27T13:45:03.877Z,26.97
2023-01-27T13:46:06.271Z,23.61
2023-01-27T13:47:08.831Z,25.28
2023-01-27T13:48:11.420Z,27.99
2023-01-27T13:49:14.312Z,28.02
2023-01-27T13:50:16.796Z,29.25
2023-01-27T13:51:19.280Z,28.25
2023-01-27T13:52:21.917Z,25.93
2023-01-27T13:53:24.326Z,31.69
2023-01-27T13:54:26.664Z,25.52
2023-01-27T13:55:29.218Z,27.42
2023-01-27T13:56:31.497Z,23.05
2023-01-27T13:57:33.726Z,24.22
2023-01-27T13:58:35.953Z,25.12
2023-01-27T13:59:38.575Z,24.02
2023-01-27T14:00:41.056Z,24.62
2023-01-27T14:01:43.660Z,24.64
2023-01-27T14:02:46.282Z,22.81
2023-01-27T14:03:54.766Z,22.19
2023-01-27T14:04:58.067Z,20.55
2023-01-27T14:06:00.722Z,25.98